Linn Grove, Indiana
Current Conditions -  °F | °C
As of 10:54 AM on Saturday 25 Oct 2014 (Local Time) from KFWA Reporting Station
Broken Clouds Broken Clouds  
Wind Chill: 61°   Ceiling: 30000
Heat Index: 61°   Visibility: 7mi
Dew Point: 53°   Wind: 14mph
Humidity: 75%   Direction: 250°WSW
Pressure: 29.92"   Gusts: NA
Location:  40.64°N, 85.03°W
Report Text: KFWA 251454Z 25012KT 7SM FEW200 BKN300 16/12 A2992 RMK AO2 SLP132 T01610117 58004
Loading
Personal Weather Stations






























Interactive Weather Map
Tropical Storm Tracking
New forecast layout! Learn more

10-Day Weather Forecast

Advertisements
Track Severe Weather on mobile